Terminal Aerodrome Forecast
Issued by NWS

Home | Current Version | Previous Version | Text Only | Print | Product List | Glossary On
Versions: 1 2 3 4 5 6 7 8 9 10 11 12 13 14 15 16
000
FTUS45 KTFX 271129
TAFHVR
TAF
KHVR 271129Z 2712/2812 23011KT P6SM SKC
     FM271900 28011G20KT P6SM FEW080
     FM280000 30011G18KT P6SM SCT080
     FM280700 03010KT P6SM SCT040 BKN070=

USA.gov is the U.S. government's official web portal to all federal, state and local government web resources and services.